РПИ Ош

Руководитель РПИ

Evgeny Vygornitsky*

Инструкторы РПИ
Evgeny Vygornitsky (Supervisor)
Vitaliy Alekseyev (Instructor)
Входит в состав
ЗЦ Центральная Азия

Диспетчеры РПИ

Диспетчер Рейтинг Допуски *

Аэропорты РПИ

ICAO Город Название Погода
UCFO Ош Ош UCFO 161800Z 16002MPS 1800 BR FU NSC 03/M06 Q1010 R12/0///95 NOSIG